createdAt,value
2023-04-08T00:01:08.223Z,100478.23
2023-04-08T00:03:56.439Z,100477.11
2023-04-08T00:06:44.742Z,100477.69
2023-04-08T00:09:33.046Z,100486.46
2023-04-08T00:12:21.355Z,100487.67
2023-04-08T00:15:09.463Z,100486.09
2023-04-08T00:17:57.404Z,100487.82
2023-04-08T00:20:45.545Z,100490.09
2023-04-08T00:23:34.305Z,100494.27
2023-04-08T00:26:22.073Z,100491.55
2023-04-08T00:29:09.853Z,100497.18
2023-04-08T00:31:57.970Z,100495.57
2023-04-08T00:34:46.600Z,100491.27
2023-04-08T00:37:35.159Z,100491.58
2023-04-08T00:40:22.870Z,100490.20
2023-04-08T00:43:10.460Z,100485.91
2023-04-08T00:45:58.344Z,100485.33
2023-04-08T00:48:46.309Z,100487.23
2023-04-08T00:51:38.037Z,100494.48
2023-04-08T00:54:25.918Z,100493.17
2023-04-08T00:57:14.000Z,100491.09
2023-04-08T01:00:02.309Z,100490.90
2023-04-08T01:03:14.930Z,100494.27
2023-04-08T01:06:55.957Z,100494.55
2023-04-08T01:10:06.189Z,100495.14
2023-04-08T01:13:00.050Z,100496.92
2023-04-08T01:15:49.591Z,100498.98
2023-04-08T01:18:38.823Z,100503.45
2023-04-08T01:21:29.038Z,100501.93
2023-04-08T01:24:36.190Z,100506.94
2023-04-08T01:27:24.783Z,100512.73
2023-04-08T01:30:14.331Z,100513.50
2023-04-08T01:33:05.130Z,100515.25
2023-04-08T01:35:55.711Z,100521.22
2023-04-08T01:38:46.156Z,100524.36
2023-04-08T01:41:37.460Z,100521.48
2023-04-08T01:44:26.897Z,100523.31
2023-04-08T01:47:15.694Z,100526.77
2023-04-08T01:50:07.937Z,100528.13
2023-04-08T01:52:57.392Z,100530.29
2023-04-08T01:55:46.316Z,100531.96
2023-04-08T01:58:46.126Z,100535.45
2023-04-08T02:01:36.738Z,100540.13
2023-04-08T02:04:24.976Z,100540.23
2023-04-08T02:07:13.157Z,100535.48
2023-04-08T02:10:00.899Z,100536.70
2023-04-08T02:12:49.094Z,100541.15
2023-04-08T02:15:42.920Z,100534.63
2023-04-08T02:18:32.589Z,100533.79
2023-04-08T02:21:27.965Z,100535.73
2023-04-08T02:24:18.199Z,100540.05
2023-04-08T02:27:08.381Z,100542.83
2023-04-08T02:29:57.901Z,100546.72
2023-04-08T02:32:47.520Z,100548.05
2023-04-08T02:35:37.109Z,100549.70
2023-04-08T02:38:29.895Z,100555.38
2023-04-08T02:41:19.503Z,100556.17
2023-04-08T02:44:07.603Z,100555.12
2023-04-08T02:46:55.976Z,100553.77
2023-04-08T02:49:43.954Z,100557.80
2023-04-08T02:52:31.842Z,100560.78
2023-04-08T02:55:20.009Z,100564.88
2023-04-08T02:58:07.776Z,100563.08
2023-04-08T03:00:55.953Z,100563.91
2023-04-08T03:03:44.047Z,100567.07
2023-04-08T03:06:32.408Z,100567.89
2023-04-08T03:09:21.107Z,100564.23
2023-04-08T03:12:10.997Z,100569.30
2023-04-08T03:14:58.667Z,100563.91
2023-04-08T03:17:47.664Z,100566.70
2023-04-08T03:20:35.699Z,100568.61
2023-04-08T03:23:23.188Z,100568.32
2023-04-08T03:26:11.542Z,100573.66
2023-04-08T03:28:59.122Z,100570.73
2023-04-08T03:31:47.083Z,100574.70
2023-04-08T03:34:35.660Z,100575.52
2023-04-08T03:37:23.692Z,100568.20
2023-04-08T03:40:12.460Z,100574.30
2023-04-08T03:43:00.733Z,100580.57
2023-04-08T03:45:48.415Z,100584.73
2023-04-08T03:48:36.221Z,100584.84
2023-04-08T03:51:25.683Z,100588.11
2023-04-08T03:54:13.436Z,100594.39
2023-04-08T03:57:01.288Z,100599.77
2023-04-08T03:59:49.346Z,100597.11
2023-04-08T04:02:37.382Z,100606.16
2023-04-08T04:05:26.262Z,100606.00
2023-04-08T04:08:13.995Z,100605.64
2023-04-08T04:11:04.464Z,100611.32
2023-04-08T04:13:52.800Z,100611.48
2023-04-08T04:16:40.777Z,100612.08
2023-04-08T04:19:32.178Z,100610.45
2023-04-08T04:22:21.014Z,100611.58
2023-04-08T04:25:09.735Z,100612.17
2023-04-08T04:27:57.346Z,100617.02
2023-04-08T04:30:45.870Z,100617.68
2023-04-08T04:33:33.710Z,100623.45
2023-04-08T04:36:21.436Z,100620.98
2023-04-08T04:39:09.484Z,100624.95
2023-04-08T04:41:58.717Z,100623.83
2023-04-08T04:44:46.361Z,100626.38
2023-04-08T04:47:34.633Z,100625.00
2023-04-08T04:50:22.324Z,100628.47
2023-04-08T04:53:10.072Z,100633.20
2023-04-08T04:55:57.996Z,100634.17
2023-04-08T04:58:46.004Z,100636.23
2023-04-08T05:01:33.832Z,100640.23
2023-04-08T05:04:21.682Z,100640.85
2023-04-08T05:07:10.319Z,100641.23
2023-04-08T05:09:58.117Z,100645.79
2023-04-08T05:12:46.039Z,100644.95
2023-04-08T05:15:33.991Z,100644.45
2023-04-08T05:18:22.022Z,100641.96
2023-04-08T05:21:09.983Z,100644.79
2023-04-08T05:23:58.626Z,100649.10
2023-04-08T05:26:47.925Z,100651.70
2023-04-08T05:29:35.785Z,100656.70
2023-04-08T05:32:23.990Z,100657.57
2023-04-08T05:35:11.494Z,100652.83
2023-04-08T05:38:00.950Z,100654.68
2023-04-08T05:40:49.179Z,100659.05
2023-04-08T05:43:37.635Z,100662.36
2023-04-08T05:46:27.816Z,100657.89
2023-04-08T05:49:17.459Z,100659.39
2023-04-08T05:52:09.567Z,100662.86
2023-04-08T05:54:58.126Z,100666.79
2023-04-08T05:57:46.261Z,100670.96
2023-04-08T06:00:36.018Z,100671.23
2023-04-08T06:03:24.928Z,100671.86
2023-04-08T06:06:12.823Z,100677.41
2023-04-08T06:09:00.778Z,100678.61
2023-04-08T06:11:50.843Z,100684.94
2023-04-08T06:14:38.613Z,100682.58
2023-04-08T06:17:28.080Z,100684.04
2023-04-08T06:20:17.301Z,100689.30
2023-04-08T06:23:07.145Z,100691.98
2023-04-08T06:25:55.801Z,100698.27
2023-04-08T06:28:43.629Z,100702.58
2023-04-08T06:31:32.029Z,100707.05
2023-04-08T06:34:19.623Z,100707.41
2023-04-08T06:37:08.548Z,100716.98
2023-04-08T06:39:58.979Z,100721.04
2023-04-08T06:42:51.538Z,100723.13
2023-04-08T06:45:47.561Z,100727.92
2023-04-08T06:48:37.879Z,100732.02
2023-04-08T06:51:25.875Z,100730.83
2023-04-08T06:54:14.193Z,100730.23
2023-04-08T06:57:02.121Z,100725.83
2023-04-08T06:59:51.253Z,100729.27
2023-04-08T07:02:41.401Z,100732.77
2023-04-08T07:05:32.133Z,100737.04
2023-04-08T07:08:19.959Z,100737.52
2023-04-08T07:11:08.352Z,100740.91
2023-04-08T07:13:57.243Z,100739.77
2023-04-08T07:16:45.188Z,100737.83
2023-04-08T07:19:34.436Z,100740.98
2023-04-08T07:22:22.702Z,100743.02
2023-04-08T07:25:10.617Z,100746.52
2023-04-08T07:27:58.660Z,100742.52
2023-04-08T07:30:47.045Z,100749.04
2023-04-08T07:33:34.906Z,100750.05
2023-04-08T07:36:22.889Z,100753.80
2023-04-08T07:39:10.693Z,100755.45
2023-04-08T07:41:59.476Z,100755.71
2023-04-08T07:44:47.119Z,100754.14
2023-04-08T07:47:37.070Z,100756.64
2023-04-08T07:50:26.245Z,100759.92
2023-04-08T07:53:14.214Z,100761.39
2023-04-08T07:56:05.795Z,100761.00
2023-04-08T07:58:54.675Z,100762.34
2023-04-08T08:01:43.593Z,100766.54
2023-04-08T08:04:31.841Z,100767.46
2023-04-08T08:07:20.136Z,100769.01
2023-04-08T08:10:09.093Z,100770.74
2023-04-08T08:12:56.855Z,100769.95
2023-04-08T08:15:44.760Z,100770.61
2023-04-08T08:18:33.466Z,100776.05
2023-04-08T08:21:21.456Z,100778.83
2023-04-08T08:24:09.474Z,100779.98
2023-04-08T08:26:57.892Z,100783.30
2023-04-08T08:29:45.309Z,100788.07
2023-04-08T08:32:32.979Z,100790.07
2023-04-08T08:35:20.872Z,100786.71
2023-04-08T08:38:09.331Z,100788.91
2023-04-08T08:40:58.883Z,100790.64
2023-04-08T08:43:47.384Z,100790.70
2023-04-08T08:46:36.444Z,100794.15
2023-04-08T08:49:24.468Z,100792.88
2023-04-08T08:52:21.069Z,100796.73
2023-04-08T08:55:27.708Z,100796.34
2023-04-08T08:58:18.872Z,100795.48
2023-04-08T09:01:37.562Z,100799.88
2023-04-08T09:04:26.927Z,100804.16
2023-04-08T09:07:14.877Z,100804.70
2023-04-08T09:10:03.400Z,100807.70
2023-04-08T09:12:56.552Z,100800.46
2023-04-08T09:16:11.553Z,100803.21
2023-04-08T09:19:11.159Z,100800.46
2023-04-08T09:22:11.524Z,100798.86
2023-04-08T09:24:59.196Z,100799.40
2023-04-08T09:27:47.055Z,100793.05
2023-04-08T09:30:34.801Z,100789.21
2023-04-08T09:33:32.019Z,100790.20
2023-04-08T09:36:20.609Z,100796.25
2023-04-08T09:39:08.763Z,100791.54
2023-04-08T09:42:01.601Z,100795.92
2023-04-08T09:44:49.823Z,100794.67
2023-04-08T09:48:08.631Z,100796.41
2023-04-08T09:50:58.138Z,100793.92
2023-04-08T09:53:59.566Z,100791.46
2023-04-08T09:57:16.372Z,100790.88
2023-04-08T10:00:19.305Z,100788.35
2023-04-08T10:03:16.654Z,100789.42
2023-04-08T10:06:05.016Z,100793.06
2023-04-08T10:08:52.826Z,100793.02
2023-04-08T10:11:40.909Z,100790.91
2023-04-08T10:14:28.882Z,100789.46
2023-04-08T10:17:30.370Z,100786.61
2023-04-08T10:20:36.478Z,100790.92
2023-04-08T10:23:56.478Z,100790.72
2023-04-08T10:26:45.881Z,100789.48
2023-04-08T10:29:33.893Z,100788.21
2023-04-08T10:32:31.826Z,100789.73
2023-04-08T10:35:36.682Z,100788.75
2023-04-08T10:38:24.999Z,100783.27
2023-04-08T10:41:21.757Z,100783.89
2023-04-08T10:44:21.702Z,100781.99
2023-04-08T10:47:09.975Z,100780.55
2023-04-08T10:49:57.889Z,100775.98
2023-04-08T10:52:54.699Z,100776.83
2023-04-08T10:55:42.705Z,100770.91
2023-04-08T10:58:30.493Z,100766.22
2023-04-08T11:01:19.648Z,100762.33
2023-04-08T11:04:13.641Z,100755.07
2023-04-08T11:07:06.053Z,100756.45
2023-04-08T11:09:53.819Z,100751.12
2023-04-08T11:12:41.911Z,100750.04
2023-04-08T11:15:31.229Z,100746.73
2023-04-08T11:18:19.233Z,100748.05
2023-04-08T11:21:11.637Z,100742.92
2023-04-08T11:24:01.134Z,100748.73
2023-04-08T11:26:52.138Z,100747.72
2023-04-08T11:29:39.982Z,100743.64
2023-04-08T11:32:29.113Z,100746.16
2023-04-08T11:35:17.098Z,100741.77
2023-04-08T11:38:05.386Z,100741.10
2023-04-08T11:40:59.405Z,100737.46
2023-04-08T11:43:55.940Z,100738.27
2023-04-08T11:46:55.555Z,100738.35
2023-04-08T11:49:47.124Z,100739.45
2023-04-08T11:53:01.030Z,100737.41
2023-04-08T11:55:49.372Z,100742.95
2023-04-08T11:58:37.372Z,100740.17
2023-04-08T12:01:25.233Z,100737.01
2023-04-08T12:04:13.243Z,100739.32
2023-04-08T12:07:01.307Z,100743.17
2023-04-08T12:09:49.198Z,100742.51
2023-04-08T12:12:37.901Z,100741.92
2023-04-08T12:15:26.203Z,100743.06
2023-04-08T12:18:14.335Z,100748.55
2023-04-08T12:21:02.209Z,100742.27
2023-04-08T12:23:50.262Z,100742.98
2023-04-08T12:26:38.388Z,100738.67
2023-04-08T12:29:26.089Z,100740.60
2023-04-08T12:32:15.085Z,100735.89
2023-04-08T12:35:03.470Z,100737.02
2023-04-08T12:37:51.238Z,100742.08
2023-04-08T12:40:38.923Z,100742.20
2023-04-08T12:43:26.859Z,100743.61
2023-04-08T12:46:14.331Z,100745.13
2023-04-08T12:49:04.572Z,100744.29
2023-04-08T12:51:54.018Z,100747.31
2023-04-08T12:54:41.813Z,100747.35
2023-04-08T12:57:29.808Z,100744.84
2023-04-08T13:00:18.050Z,100742.25
2023-04-08T13:03:06.588Z,100741.79
2023-04-08T13:05:54.649Z,100741.71
2023-04-08T13:08:42.982Z,100737.27
2023-04-08T13:11:34.305Z,100745.95
2023-04-08T13:14:22.327Z,100749.95
2023-04-08T13:17:09.789Z,100742.99
2023-04-08T13:19:58.015Z,100748.72
2023-04-08T13:22:46.066Z,100748.50
2023-04-08T13:25:33.715Z,100744.09
2023-04-08T13:28:22.199Z,100750.68
2023-04-08T13:31:10.180Z,100748.36
2023-04-08T13:33:58.493Z,100746.80
2023-04-08T13:36:46.338Z,100746.73
2023-04-08T13:39:34.954Z,100742.80
2023-04-08T13:42:22.782Z,100744.88
2023-04-08T13:45:12.171Z,100745.70
2023-04-08T13:48:01.435Z,100751.40
2023-04-08T13:50:57.301Z,100747.08
2023-04-08T13:53:45.285Z,100745.48
2023-04-08T13:56:34.147Z,100744.93
2023-04-08T13:59:22.075Z,100746.77
2023-04-08T14:02:10.780Z,100743.30
2023-04-08T14:05:01.606Z,100746.86
2023-04-08T14:07:49.590Z,100752.89
2023-04-08T14:10:38.499Z,100745.34
2023-04-08T14:13:29.136Z,100745.95
2023-04-08T14:16:19.292Z,100748.02
2023-04-08T14:19:10.058Z,100746.46
2023-04-08T14:21:58.639Z,100743.53
2023-04-08T14:24:51.861Z,100744.05
2023-04-08T14:27:51.169Z,100742.45
2023-04-08T14:30:47.706Z,100742.77
2023-04-08T14:33:36.437Z,100742.66
2023-04-08T14:36:26.533Z,100739.52
2023-04-08T14:39:14.585Z,100737.98
2023-04-08T14:42:15.453Z,100738.20
2023-04-08T14:45:04.950Z,100742.53
2023-04-08T14:47:53.491Z,100745.14
2023-04-08T14:50:44.545Z,100753.90
2023-04-08T14:53:34.062Z,100753.85
2023-04-08T14:56:24.105Z,100757.09
2023-04-08T14:59:12.953Z,100760.87
2023-04-08T15:02:03.515Z,100759.59
2023-04-08T15:04:53.243Z,100759.86
2023-04-08T15:07:43.649Z,100762.44
2023-04-08T15:10:32.334Z,100761.80
2023-04-08T15:13:20.027Z,100759.95
2023-04-08T15:16:07.862Z,100756.61
2023-04-08T15:18:59.924Z,100758.91
2023-04-08T15:21:48.182Z,100759.64
2023-04-08T15:24:37.080Z,100765.17
2023-04-08T15:27:24.974Z,100766.10
2023-04-08T15:30:14.612Z,100767.86
2023-04-08T15:33:09.312Z,100770.90
2023-04-08T15:36:00.382Z,100772.88
2023-04-08T15:38:49.377Z,100773.33
2023-04-08T15:41:43.518Z,100774.17
2023-04-08T15:44:35.388Z,100775.67
2023-04-08T15:47:25.158Z,100773.77
2023-04-08T15:50:15.150Z,100776.16
2023-04-08T15:53:05.516Z,100774.10
2023-04-08T15:55:59.076Z,100774.91
2023-04-08T15:58:46.839Z,100774.64
2023-04-08T16:01:37.399Z,100772.58
2023-04-08T16:04:25.489Z,100774.77
2023-04-08T16:07:16.836Z,100770.85
2023-04-08T16:10:07.111Z,100774.42
2023-04-08T16:12:54.614Z,100774.15
2023-04-08T16:15:42.903Z,100774.68
2023-04-08T16:18:31.952Z,100778.63
2023-04-08T16:21:20.409Z,100777.99
2023-04-08T16:24:09.555Z,100778.26
2023-04-08T16:27:00.939Z,100776.30
2023-04-08T16:29:48.898Z,100779.84
2023-04-08T16:32:37.718Z,100782.27
2023-04-08T16:35:27.699Z,100787.59
2023-04-08T16:38:16.090Z,100789.08
2023-04-08T16:41:11.091Z,100789.73
2023-04-08T16:44:15.730Z,100788.23
2023-04-08T16:47:03.603Z,100791.44
2023-04-08T16:49:53.002Z,100793.80
2023-04-08T16:52:49.387Z,100798.67
2023-04-08T16:55:39.385Z,100802.48
2023-04-08T16:58:29.121Z,100803.96
2023-04-08T17:01:16.686Z,100805.53
2023-04-08T17:04:05.834Z,100805.45
2023-04-08T17:06:57.458Z,100810.98
2023-04-08T17:09:53.514Z,100808.58
2023-04-08T17:12:43.171Z,100815.39
2023-04-08T17:15:32.289Z,100815.10
2023-04-08T17:18:22.200Z,100815.79
2023-04-08T17:21:21.873Z,100813.88
2023-04-08T17:24:12.357Z,100810.45
2023-04-08T17:27:12.378Z,100818.91
2023-04-08T17:30:04.243Z,100816.45
2023-04-08T17:32:54.118Z,100820.88
2023-04-08T17:35:48.805Z,100829.27
2023-04-08T17:38:40.172Z,100831.77
2023-04-08T17:41:39.144Z,100832.05
2023-04-08T17:44:29.969Z,100832.45
2023-04-08T17:47:17.939Z,100833.08
2023-04-08T17:50:12.021Z,100836.60
2023-04-08T17:53:04.363Z,100840.52
2023-04-08T17:55:58.278Z,100841.73
2023-04-08T17:58:51.167Z,100843.64
2023-04-08T18:01:44.883Z,100847.63
2023-04-08T18:04:34.116Z,100851.35
2023-04-08T18:07:31.791Z,100850.15
2023-04-08T18:10:21.497Z,100855.48
2023-04-08T18:13:12.080Z,100855.84
2023-04-08T18:16:01.521Z,100856.64
2023-04-08T18:18:52.228Z,100860.25
2023-04-08T18:21:42.021Z,100866.81
2023-04-08T18:24:31.220Z,100864.86
2023-04-08T18:27:20.961Z,100866.27
2023-04-08T18:30:10.542Z,100871.60
2023-04-08T18:32:58.516Z,100874.05
2023-04-08T18:35:47.085Z,100881.39
2023-04-08T18:38:36.414Z,100879.25
2023-04-08T18:41:25.718Z,100883.61
2023-04-08T18:44:13.565Z,100889.73
2023-04-08T18:47:03.303Z,100887.12
2023-04-08T18:49:51.655Z,100889.60
2023-04-08T18:52:40.558Z,100893.98
2023-04-08T18:55:28.626Z,100897.14
2023-04-08T18:58:18.654Z,100893.11
2023-04-08T19:01:08.169Z,100892.98
2023-04-08T19:03:56.606Z,100898.81
2023-04-08T19:06:45.417Z,100900.65
2023-04-08T19:09:34.548Z,100899.45
2023-04-08T19:12:22.555Z,100903.02
2023-04-08T19:15:11.517Z,100902.97
2023-04-08T19:18:01.606Z,100902.36
2023-04-08T19:20:50.188Z,100904.65
2023-04-08T19:23:39.039Z,100902.75
2023-04-08T19:26:28.762Z,100901.15
2023-04-08T19:29:19.606Z,100897.09
2023-04-08T19:32:08.054Z,100898.36
2023-04-08T19:34:55.914Z,100898.14
2023-04-08T19:37:44.793Z,100900.33
2023-04-08T19:40:32.507Z,100903.60
2023-04-08T19:43:22.031Z,100899.39
2023-04-08T19:46:10.252Z,100903.69
2023-04-08T19:49:00.377Z,100905.46
2023-04-08T19:51:48.496Z,100900.89
2023-04-08T19:54:36.536Z,100900.48
2023-04-08T19:57:25.583Z,100902.78
2023-04-08T20:00:17.386Z,100907.27
2023-04-08T20:03:08.068Z,100903.25
2023-04-08T20:05:56.421Z,100908.19
2023-04-08T20:08:46.521Z,100910.52
2023-04-08T20:11:34.652Z,100908.73
2023-04-08T20:14:22.491Z,100905.74
2023-04-08T20:17:10.746Z,100905.98
2023-04-08T20:19:59.381Z,100907.27
2023-04-08T20:22:47.098Z,100908.76
2023-04-08T20:25:38.762Z,100901.62
2023-04-08T20:28:26.529Z,100899.45
2023-04-08T20:31:14.601Z,100899.85
2023-04-08T20:34:03.578Z,100896.59
2023-04-08T20:36:52.178Z,100900.69
2023-04-08T20:39:40.384Z,100899.46
2023-04-08T20:42:28.828Z,100901.54
2023-04-08T20:45:18.749Z,100903.09
2023-04-08T20:48:07.490Z,100903.88
2023-04-08T20:50:56.315Z,100907.30
2023-04-08T20:53:45.952Z,100906.20
2023-04-08T20:56:33.645Z,100906.96
2023-04-08T20:59:21.671Z,100910.00
2023-04-08T21:02:13.275Z,100908.77
2023-04-08T21:05:01.372Z,100904.48
2023-04-08T21:07:49.219Z,100905.11
2023-04-08T21:10:37.364Z,100905.61
2023-04-08T21:13:25.277Z,100905.08
2023-04-08T21:16:13.957Z,100905.58
2023-04-08T21:19:02.169Z,100907.91
2023-04-08T21:21:51.962Z,100905.27
2023-04-08T21:24:39.786Z,100900.15
2023-04-08T21:27:29.272Z,100905.30
2023-04-08T21:30:18.045Z,100904.36
2023-04-08T21:33:05.858Z,100898.59
2023-04-08T21:35:53.948Z,100904.73
2023-04-08T21:38:43.309Z,100902.81
2023-04-08T21:41:31.420Z,100904.48
2023-04-08T21:44:20.083Z,100902.84
2023-04-08T21:47:09.600Z,100905.21
2023-04-08T21:49:57.987Z,100906.02
2023-04-08T21:52:45.924Z,100904.30
2023-04-08T21:55:33.678Z,100902.30
2023-04-08T21:58:21.652Z,100902.09
2023-04-08T22:01:09.660Z,100898.34
2023-04-08T22:03:58.330Z,100898.77
2023-04-08T22:06:49.359Z,100899.08
2023-04-08T22:09:40.830Z,100896.39
2023-04-08T22:12:30.528Z,100899.47
2023-04-08T22:15:18.137Z,100905.09
2023-04-08T22:18:07.198Z,100902.55
2023-04-08T22:20:56.218Z,100906.27
2023-04-08T22:23:43.878Z,100898.98
2023-04-08T22:26:33.201Z,100901.20
2023-04-08T22:29:20.976Z,100899.80
2023-04-08T22:32:08.782Z,100897.84
2023-04-08T22:34:57.014Z,100895.92
2023-04-08T22:37:44.651Z,100893.48
2023-04-08T22:40:36.367Z,100894.71
2023-04-08T22:43:24.057Z,100892.45
2023-04-08T22:46:14.403Z,100897.35
2023-04-08T22:49:02.643Z,100892.02
2023-04-08T22:51:51.038Z,100889.48
2023-04-08T22:54:38.830Z,100890.80
2023-04-08T22:57:26.657Z,100894.27
2023-04-08T23:00:14.701Z,100893.98
2023-04-08T23:03:04.898Z,100892.37
2023-04-08T23:05:52.787Z,100892.55
2023-04-08T23:08:40.886Z,100888.69
2023-04-08T23:11:28.498Z,100887.27
2023-04-08T23:14:15.966Z,100890.21
2023-04-08T23:17:05.566Z,100884.58
2023-04-08T23:19:53.757Z,100887.92
2023-04-08T23:22:41.730Z,100885.15
2023-04-08T23:25:30.913Z,100884.64
2023-04-08T23:28:18.602Z,100884.19
2023-04-08T23:31:06.620Z,100881.14
2023-04-08T23:33:54.561Z,100883.86
2023-04-08T23:36:42.235Z,100883.36
2023-04-08T23:39:31.317Z,100879.40
2023-04-08T23:42:20.751Z,100880.44
2023-04-08T23:45:09.490Z,100875.98
2023-04-08T23:47:57.621Z,100870.73
2023-04-08T23:50:55.293Z,100871.96
2023-04-08T23:53:43.105Z,100871.55
2023-04-08T23:56:32.707Z,100873.38
2023-04-08T23:59:20.541Z,100874.73
